createdAt,value
2022-12-01T00:01:59.503Z,100288.44
2022-12-01T00:04:26.087Z,100292.25
2022-12-01T00:06:53.892Z,100299.03
2022-12-01T00:09:20.614Z,100297.47
2022-12-01T00:11:47.388Z,100293.25
2022-12-01T00:14:13.934Z,100300.50
2022-12-01T00:16:40.579Z,100301.88
2022-12-01T00:19:07.139Z,100299.19
2022-12-01T00:21:33.612Z,100297.19
2022-12-01T00:24:01.737Z,100288.66
2022-12-01T00:26:28.339Z,100296.63
2022-12-01T00:28:56.823Z,100292.19
2022-12-01T00:31:23.967Z,100288.22
2022-12-01T00:33:50.692Z,100288.22
2022-12-01T00:36:17.596Z,100291.25
2022-12-01T00:38:44.078Z,100295.44
2022-12-01T00:41:12.144Z,100293.75
2022-12-01T00:43:38.753Z,100293.81
2022-12-01T00:46:05.572Z,100300.44
2022-12-01T00:48:32.121Z,100296.97
2022-12-01T00:50:58.619Z,100299.28
2022-12-01T00:53:25.118Z,100293.28
2022-12-01T00:55:51.701Z,100287.34
2022-12-01T00:58:19.561Z,100293.91
2022-12-01T01:00:46.025Z,100298.72
2022-12-01T01:03:12.615Z,100291.34
2022-12-01T01:05:40.780Z,100300.03
2022-12-01T01:08:08.227Z,100294.94
2022-12-01T01:10:38.136Z,100298.97
2022-12-01T01:13:04.658Z,100304.94
2022-12-01T01:15:32.582Z,100300.41
2022-12-01T01:17:59.105Z,100300.00
2022-12-01T01:20:25.609Z,100300.47
2022-12-01T01:22:52.121Z,100294.38
2022-12-01T01:25:18.677Z,100307.53
2022-12-01T01:27:45.161Z,100306.97
2022-12-01T01:30:12.715Z,100303.59
2022-12-01T01:32:40.542Z,100295.38
2022-12-01T01:35:07.770Z,100302.25
2022-12-01T01:37:34.259Z,100298.97
2022-12-01T01:40:00.747Z,100305.72
2022-12-01T01:42:27.298Z,100308.56
2022-12-01T01:44:56.093Z,100307.22
2022-12-01T01:47:26.626Z,100308.44
2022-12-01T01:49:56.351Z,100306.84
2022-12-01T01:52:23.948Z,100309.13
2022-12-01T01:54:53.929Z,100318.03
2022-12-01T01:57:25.969Z,100308.13
2022-12-01T01:59:57.009Z,100303.44
2022-12-01T02:02:23.521Z,100305.28
2022-12-01T02:04:55.382Z,100304.44
2022-12-01T02:07:23.288Z,100295.38
2022-12-01T02:09:50.067Z,100301.06
2022-12-01T02:12:30.595Z,100302.44
2022-12-01T02:15:18.485Z,100292.00
2022-12-01T02:17:50.802Z,100309.03
2022-12-01T02:20:42.778Z,100307.03
2022-12-01T02:23:47.343Z,100303.75
2022-12-01T02:26:36.259Z,100300.66
2022-12-01T02:29:34.100Z,100303.25
2022-12-01T02:32:10.491Z,100296.31
2022-12-01T02:34:43.557Z,100310.41
2022-12-01T02:37:17.397Z,100298.81
2022-12-01T02:39:52.816Z,100303.34
2022-12-01T02:42:25.050Z,100302.34
2022-12-01T02:44:52.227Z,100312.13
2022-12-01T02:47:20.758Z,100314.69
2022-12-01T02:49:50.537Z,100318.38
2022-12-01T02:52:18.505Z,100311.72
2022-12-01T02:54:47.518Z,100325.44
2022-12-01T02:57:15.665Z,100315.25
2022-12-01T02:59:45.475Z,100317.78
2022-12-01T03:02:18.112Z,100315.78
2022-12-01T03:04:54.950Z,100309.31
2022-12-01T03:07:51.419Z,100311.31
2022-12-01T03:10:24.591Z,100307.34
2022-12-01T03:13:01.805Z,100304.50
2022-12-01T03:15:33.117Z,100296.28
2022-12-01T03:18:06.807Z,100296.59
2022-12-01T03:20:40.294Z,100295.19
2022-12-01T03:23:10.352Z,100298.88
2022-12-01T03:25:39.750Z,100300.56
2022-12-01T03:28:23.819Z,100295.50
2022-12-01T03:30:55.113Z,100294.09
2022-12-01T03:33:26.885Z,100293.66
2022-12-01T03:35:59.614Z,100303.25
2022-12-01T03:38:28.410Z,100306.94
2022-12-01T03:40:59.815Z,100307.63
2022-12-01T03:43:30.625Z,100307.34
2022-12-01T03:46:03.245Z,100309.88
2022-12-01T03:48:31.093Z,100318.53
2022-12-01T03:51:05.630Z,100311.63
2022-12-01T03:53:39.973Z,100311.31
2022-12-01T03:56:07.860Z,100308.78
2022-12-01T03:58:38.308Z,100309.47
2022-12-01T04:01:05.457Z,100311.31
2022-12-01T04:03:31.957Z,100309.03
2022-12-01T04:06:00.814Z,100313.56
2022-12-01T04:08:27.328Z,100319.47
2022-12-01T04:10:53.814Z,100316.41
2022-12-01T04:13:20.317Z,100314.09
2022-12-01T04:15:46.849Z,100313.72
2022-12-01T04:18:13.410Z,100317.78
2022-12-01T04:20:39.906Z,100323.16
2022-12-01T04:23:07.730Z,100322.88
2022-12-01T04:25:34.218Z,100320.72
2022-12-01T04:28:00.693Z,100329.09
2022-12-01T04:30:27.213Z,100324.84
2022-12-01T04:32:53.714Z,100322.72
2022-12-01T04:35:20.199Z,100318.34
2022-12-01T04:37:46.670Z,100310.13
2022-12-01T04:40:14.777Z,100315.50
2022-12-01T04:42:41.238Z,100317.78
2022-12-01T04:45:09.176Z,100316.09
2022-12-01T04:47:35.633Z,100321.06
2022-12-01T04:50:02.127Z,100316.41
2022-12-01T04:52:33.736Z,100325.41
2022-12-01T04:55:01.660Z,100327.94
2022-12-01T04:57:29.498Z,100319.19
2022-12-01T04:59:55.986Z,100328.25
2022-12-01T05:02:22.577Z,100333.63
2022-12-01T05:04:49.063Z,100329.63
2022-12-01T05:07:15.533Z,100329.63
2022-12-01T05:09:42.043Z,100325.66
2022-12-01T05:12:08.529Z,100327.38
2022-12-01T05:14:36.404Z,100328.25
2022-12-01T05:17:02.884Z,100325.16
2022-12-01T05:19:29.377Z,100322.63
2022-12-01T05:21:55.874Z,100320.06
2022-12-01T05:24:22.434Z,100326.16
2022-12-01T05:26:48.984Z,100325.75
2022-12-01T05:29:15.583Z,100330.13
2022-12-01T05:31:45.216Z,100333.66
2022-12-01T05:34:11.907Z,100337.59
2022-12-01T05:36:38.383Z,100330.53
2022-12-01T05:39:05.210Z,100340.03
2022-12-01T05:41:31.747Z,100334.22
2022-12-01T05:43:58.259Z,100334.22
2022-12-01T05:46:24.827Z,100333.63
2022-12-01T05:48:52.744Z,100332.22
2022-12-01T05:51:19.288Z,100336.19
2022-12-01T05:53:45.969Z,100335.91
2022-12-01T05:56:12.757Z,100335.31
2022-12-01T05:58:39.245Z,100336.16
2022-12-01T06:01:06.162Z,100337.28
2022-12-01T06:03:32.705Z,100336.19
2022-12-01T06:06:00.545Z,100346.84
2022-12-01T06:08:27.170Z,100346.72
2022-12-01T06:10:53.690Z,100354.63
2022-12-01T06:13:20.242Z,100344.16
2022-12-01T06:15:55.830Z,100344.88
2022-12-01T06:18:22.296Z,100353.53
2022-12-01T06:20:48.808Z,100351.69
2022-12-01T06:23:16.638Z,100356.91
2022-12-01T06:25:43.462Z,100361.69
2022-12-01T06:28:09.950Z,100366.81
2022-12-01T06:30:36.432Z,100360.59
2022-12-01T06:33:02.975Z,100349.84
2022-12-01T06:35:29.482Z,100354.22
2022-12-01T06:37:55.958Z,100351.53
2022-12-01T06:40:23.803Z,100358.59
2022-12-01T06:42:50.318Z,100360.00
2022-12-01T06:45:17.000Z,100366.25
2022-12-01T06:47:43.526Z,100371.63
2022-12-01T06:50:10.628Z,100375.56
2022-12-01T06:52:37.777Z,100365.13
2022-12-01T06:55:05.357Z,100374.72
2022-12-01T06:57:33.340Z,100380.06
2022-12-01T07:00:00.083Z,100383.50
2022-12-01T07:02:26.791Z,100381.53
2022-12-01T07:04:53.316Z,100387.28
2022-12-01T07:07:19.835Z,100382.06
2022-12-01T07:09:46.720Z,100383.75
2022-12-01T07:12:13.388Z,100388.44
2022-12-01T07:14:41.222Z,100385.88
2022-12-01T07:17:07.870Z,100390.81
2022-12-01T07:19:34.455Z,100390.13
2022-12-01T07:22:00.953Z,100394.66
2022-12-01T07:24:27.438Z,100397.31
2022-12-01T07:26:53.915Z,100392.94
2022-12-01T07:29:20.411Z,100390.25
2022-12-01T07:31:48.266Z,100392.50
2022-12-01T07:34:14.906Z,100398.72
2022-12-01T07:36:41.404Z,100392.19
2022-12-01T07:39:08.956Z,100387.66
2022-12-01T07:41:35.851Z,100390.75
2022-12-01T07:44:02.429Z,100391.03
2022-12-01T07:46:29.054Z,100399.00
2022-12-01T07:48:57.660Z,100398.41
2022-12-01T07:51:25.316Z,100388.75
2022-12-01T07:53:53.722Z,100394.13
2022-12-01T07:56:21.509Z,100393.56
2022-12-01T07:58:48.401Z,100402.88
2022-12-01T08:01:16.838Z,100404.00
2022-12-01T08:03:43.443Z,100408.00
2022-12-01T08:06:14.330Z,100406.28
2022-12-01T08:08:41.233Z,100405.69
2022-12-01T08:11:11.310Z,100400.06
2022-12-01T08:13:49.201Z,100407.16
2022-12-01T08:16:19.002Z,100397.50
2022-12-01T08:18:46.133Z,100402.31
2022-12-01T08:21:15.811Z,100399.34
2022-12-01T08:23:43.033Z,100408.09
2022-12-01T08:26:13.380Z,100402.81
2022-12-01T08:28:40.255Z,100404.81
2022-12-01T08:31:08.709Z,100416.03
2022-12-01T08:33:35.290Z,100415.75
2022-12-01T08:36:02.147Z,100413.50
2022-12-01T08:38:39.002Z,100408.28
2022-12-01T08:41:17.170Z,100407.50
2022-12-01T08:43:59.840Z,100412.97
2022-12-01T08:46:27.858Z,100408.19
2022-12-01T08:48:55.203Z,100405.19
2022-12-01T08:51:21.693Z,100409.13
2022-12-01T08:53:50.430Z,100413.56
2022-12-01T08:56:19.524Z,100413.56
2022-12-01T08:58:46.103Z,100405.75
2022-12-01T09:01:14.713Z,100408.97
2022-12-01T09:03:42.293Z,100408.97
2022-12-01T09:06:11.370Z,100421.41
2022-12-01T09:08:38.040Z,100427.19
2022-12-01T09:11:09.376Z,100420.81
2022-12-01T09:13:37.350Z,100422.59
2022-12-01T09:16:05.536Z,100422.91
2022-12-01T09:18:32.385Z,100420.50
2022-12-01T09:20:59.527Z,100427.97
2022-12-01T09:23:26.803Z,100430.38
2022-12-01T09:25:53.500Z,100424.38
2022-12-01T09:28:21.370Z,100422.69
2022-12-01T09:30:47.916Z,100422.41
2022-12-01T09:33:14.431Z,100419.31
2022-12-01T09:35:40.922Z,100425.78
2022-12-01T09:38:07.511Z,100418.56
2022-12-01T09:40:37.442Z,100417.03
2022-12-01T09:43:11.565Z,100419.31
2022-12-01T09:45:43.534Z,100407.38
2022-12-01T09:48:19.496Z,100407.88
2022-12-01T09:50:45.997Z,100407.09
2022-12-01T09:53:18.319Z,100412.25
2022-12-01T09:55:44.953Z,100407.63
2022-12-01T09:58:17.414Z,100409.13
2022-12-01T10:00:46.544Z,100413.34
2022-12-01T10:03:24.730Z,100409.31
2022-12-01T10:06:25.898Z,100404.03
2022-12-01T10:08:50.269Z,100398.34
2022-12-01T10:11:30.944Z,100394.66
2022-12-01T10:13:58.689Z,100393.19
2022-12-01T10:16:30.521Z,100387.13
2022-12-01T10:19:01.616Z,100383.81
2022-12-01T10:21:46.809Z,100391.22
2022-12-01T10:24:27.068Z,100389.28
2022-12-01T10:27:01.597Z,100388.13
2022-12-01T10:29:34.715Z,100384.44
2022-12-01T10:32:09.321Z,100381.28
2022-12-01T10:34:40.138Z,100383.22
2022-12-01T10:37:13.106Z,100383.50
2022-12-01T10:39:42.694Z,100378.44
2022-12-01T10:42:14.730Z,100386.44
2022-12-01T10:44:42.092Z,100386.19
2022-12-01T10:47:18.234Z,100382.75
2022-12-01T10:49:44.789Z,100373.81
2022-12-01T10:52:32.273Z,100379.44
2022-12-01T10:54:59.639Z,100373.22
2022-12-01T10:57:27.922Z,100380.97
2022-12-01T10:59:57.756Z,100378.97
2022-12-01T11:02:27.772Z,100380.66
2022-12-01T11:04:57.530Z,100384.91
2022-12-01T11:07:27.065Z,100386.44
2022-12-01T11:10:13.746Z,100381.50
2022-12-01T11:12:40.882Z,100384.59
2022-12-01T11:15:16.924Z,100382.97
2022-12-01T11:17:45.274Z,100376.50
2022-12-01T11:20:31.358Z,100371.72
2022-12-01T11:23:23.278Z,100378.13
2022-12-01T11:25:58.943Z,100365.06
2022-12-01T11:28:25.873Z,100360.13
2022-12-01T11:30:56.767Z,100369.44
2022-12-01T11:33:25.375Z,100358.91
2022-12-01T11:35:52.139Z,100354.06
2022-12-01T11:38:30.080Z,100358.91
2022-12-01T11:40:58.542Z,100360.69
2022-12-01T11:43:28.725Z,100362.75
2022-12-01T11:45:58.707Z,100357.66
2022-12-01T11:48:29.363Z,100358.13
2022-12-01T11:51:10.736Z,100354.75
2022-12-01T11:53:39.133Z,100359.75
2022-12-01T11:56:18.116Z,100355.66
2022-12-01T11:58:46.842Z,100353.22
2022-12-01T12:01:28.296Z,100354.91
2022-12-01T12:04:07.801Z,100351.53
2022-12-01T12:06:43.214Z,100348.16
2022-12-01T12:09:45.328Z,100343.75
2022-12-01T12:12:24.333Z,100351.53
2022-12-01T12:14:59.502Z,100341.38
2022-12-01T12:17:43.809Z,100343.75
2022-12-01T12:20:34.402Z,100351.22
2022-12-01T12:23:16.748Z,100346.16
2022-12-01T12:25:54.383Z,100342.84
2022-12-01T12:28:36.913Z,100332.31
2022-12-01T12:31:14.385Z,100343.38
2022-12-01T12:34:19.941Z,100341.38
2022-12-01T12:37:01.926Z,100337.53
2022-12-01T12:39:44.733Z,100338.16
2022-12-01T12:42:23.536Z,100329.31
2022-12-01T12:44:56.122Z,100326.25
2022-12-01T12:47:41.612Z,100331.78
2022-12-01T12:50:19.336Z,100329.25
2022-12-01T12:52:50.078Z,100331.22
2022-12-01T12:55:22.995Z,100336.00
2022-12-01T12:57:52.744Z,100337.00
2022-12-01T13:00:22.144Z,100333.94
2022-12-01T13:02:52.962Z,100337.16
2022-12-01T13:05:24.851Z,100339.38
2022-12-01T13:07:56.256Z,100335.06
2022-12-01T13:10:28.206Z,100348.16
2022-12-01T13:13:01.444Z,100332.31
2022-12-01T13:15:29.786Z,100329.16
2022-12-01T13:18:01.893Z,100332.63
2022-12-01T13:20:29.890Z,100328.31
2022-12-01T13:23:01.075Z,100328.59
2022-12-01T13:25:37.281Z,100330.00
2022-12-01T13:28:06.847Z,100326.25
2022-12-01T13:30:33.440Z,100333.00
2022-12-01T13:33:02.709Z,100335.31
2022-12-01T13:35:31.900Z,100330.31
2022-12-01T13:38:20.449Z,100325.78
2022-12-01T13:40:47.513Z,100336.22
2022-12-01T13:43:18.682Z,100328.94
2022-12-01T13:45:46.070Z,100334.63
2022-12-01T13:48:28.621Z,100339.13
2022-12-01T13:50:57.983Z,100332.72
2022-12-01T13:53:29.194Z,100337.53
2022-12-01T13:55:57.540Z,100349.69
2022-12-01T13:58:41.389Z,100347.38
2022-12-01T14:01:56.737Z,100342.31
2022-12-01T14:04:32.380Z,100339.22
2022-12-01T14:07:28.660Z,100338.09
2022-12-01T14:10:07.751Z,100331.56
2022-12-01T14:12:36.115Z,100329.53
2022-12-01T14:15:20.475Z,100329.53
2022-12-01T14:17:47.840Z,100322.47
2022-12-01T14:20:21.051Z,100318.09
2022-12-01T14:23:02.040Z,100321.06
2022-12-01T14:25:31.122Z,100319.63
2022-12-01T14:27:59.603Z,100317.09
2022-12-01T14:31:05.004Z,100329.53
2022-12-01T14:33:44.297Z,100326.16
2022-12-01T14:36:20.955Z,100319.09
2022-12-01T14:38:49.469Z,100322.47
2022-12-01T14:41:22.787Z,100317.53
2022-12-01T14:43:52.318Z,100321.72
2022-12-01T14:46:25.967Z,100310.41
2022-12-01T14:48:54.958Z,100309.28
2022-12-01T14:51:26.708Z,100306.88
2022-12-01T14:53:55.892Z,100307.19
2022-12-01T14:56:25.540Z,100309.63
2022-12-01T14:58:54.683Z,100302.81
2022-12-01T15:01:22.122Z,100311.88
2022-12-01T15:03:52.218Z,100306.34
2022-12-01T15:06:20.720Z,100312.72
2022-12-01T15:09:31.437Z,100311.56
2022-12-01T15:11:54.274Z,100309.56
2022-12-01T15:14:30.649Z,100308.72
2022-12-01T15:16:57.828Z,100307.34
2022-12-01T15:19:30.763Z,100307.34
2022-12-01T15:21:57.454Z,100304.50
2022-12-01T15:24:26.109Z,100306.72
2022-12-01T15:27:00.517Z,100305.88
2022-12-01T15:29:36.448Z,100307.88
2022-12-01T15:32:06.909Z,100306.78
2022-12-01T15:34:38.034Z,100307.78
2022-12-01T15:37:07.215Z,100307.09
2022-12-01T15:39:36.110Z,100313.84
2022-12-01T15:42:04.674Z,100314.00
2022-12-01T15:44:33.362Z,100307.28
2022-12-01T15:47:20.096Z,100311.31
2022-12-01T15:49:48.998Z,100313.84
2022-12-01T15:52:15.621Z,100313.84
2022-12-01T15:54:47.584Z,100325.94
2022-12-01T15:57:18.487Z,100322.53
2022-12-01T15:59:46.547Z,100316.00
2022-12-01T16:02:25.730Z,100321.69
2022-12-01T16:05:01.454Z,100315.63
2022-12-01T16:08:04.584Z,100314.78
2022-12-01T16:10:30.874Z,100316.19
2022-12-01T16:13:46.102Z,100317.88
2022-12-01T16:16:39.062Z,100323.25
2022-12-01T16:19:23.735Z,100320.56
2022-12-01T16:21:53.988Z,100317.16
2022-12-01T16:24:23.597Z,100314.19
2022-12-01T16:26:52.618Z,100320.22
2022-12-01T16:29:20.353Z,100315.84
2022-12-01T16:34:46.253Z,100317.88
2022-12-01T16:37:13.824Z,100320.84
2022-12-01T16:39:40.373Z,100308.94
2022-12-01T16:42:07.012Z,100319.56
2022-12-01T16:44:33.542Z,100327.78
2022-12-01T16:47:01.402Z,100314.78
2022-12-01T16:49:27.874Z,100319.16
2022-12-01T16:51:56.779Z,100321.00
2022-12-01T16:54:24.020Z,100326.94
2022-12-01T16:56:50.637Z,100326.94
2022-12-01T16:59:17.189Z,100323.09
2022-12-01T17:01:43.781Z,100322.25
2022-12-01T17:04:11.674Z,100322.41
2022-12-01T17:06:38.371Z,100317.53
2022-12-01T17:09:05.168Z,100326.28
2022-12-01T17:11:32.435Z,100317.25
2022-12-01T17:13:58.940Z,100322.06
2022-12-01T17:16:25.579Z,100328.00
2022-12-01T17:18:52.188Z,100324.63
2022-12-01T17:21:20.102Z,100328.00
2022-12-01T17:23:46.702Z,100320.63
2022-12-01T17:26:16.295Z,100318.94
2022-12-01T17:28:43.230Z,100325.00
2022-12-01T17:31:10.128Z,100325.16
2022-12-01T17:33:37.118Z,100326.00
2022-12-01T17:36:05.806Z,100326.00
2022-12-01T17:38:36.167Z,100319.63
2022-12-01T17:41:05.052Z,100326.28
2022-12-01T17:43:32.959Z,100328.69
2022-12-01T17:45:59.632Z,100328.00
2022-12-01T17:48:26.251Z,100322.31
2022-12-01T17:50:52.863Z,100331.38
2022-12-01T17:53:19.411Z,100332.22
2022-12-01T17:55:47.302Z,100326.38
2022-12-01T17:58:13.813Z,100327.38
2022-12-01T18:00:40.384Z,100329.38
2022-12-01T18:03:06.939Z,100325.41
2022-12-01T18:05:33.681Z,100324.69
2022-12-01T18:08:00.475Z,100327.69
2022-12-01T18:10:27.076Z,100328.38
2022-12-01T18:12:55.054Z,100327.38
2022-12-01T18:15:21.668Z,100329.06
2022-12-01T18:17:48.304Z,100328.53
2022-12-01T18:20:14.967Z,100333.06
2022-12-01T18:22:41.549Z,100331.38
2022-12-01T18:25:08.600Z,100324.31
2022-12-01T18:27:35.175Z,100332.69
2022-12-01T18:30:04.260Z,100324.94
2022-12-01T18:32:31.562Z,100332.00
2022-12-01T18:34:58.231Z,100326.00
2022-12-01T18:37:24.818Z,100327.00
2022-12-01T18:39:51.554Z,100326.28
2022-12-01T18:42:18.077Z,100328.00
2022-12-01T18:44:44.660Z,100324.63
2022-12-01T18:47:12.542Z,100328.31
2022-12-01T18:49:39.155Z,100315.53
2022-12-01T18:52:05.739Z,100321.75
2022-12-01T18:54:32.342Z,100319.78
2022-12-01T18:56:59.340Z,100316.94
2022-12-01T18:59:25.954Z,100321.31
2022-12-01T19:01:53.068Z,100315.25
2022-12-01T19:04:21.050Z,100314.94
2022-12-01T19:06:47.555Z,100314.94
2022-12-01T19:09:15.015Z,100310.56
2022-12-01T19:11:42.267Z,100307.56
2022-12-01T19:14:13.316Z,100310.97
2022-12-01T19:16:40.171Z,100316.34
2022-12-01T19:19:06.800Z,100314.34
2022-12-01T19:21:34.644Z,100316.00
2022-12-01T19:24:01.196Z,100314.34
2022-12-01T19:26:27.716Z,100310.63
2022-12-01T19:28:54.237Z,100314.34
2022-12-01T19:31:23.383Z,100317.69
2022-12-01T19:33:50.060Z,100312.47
2022-12-01T19:36:18.567Z,100309.28
2022-12-01T19:38:47.092Z,100311.09
2022-12-01T19:41:14.553Z,100305.56
2022-12-01T19:43:42.093Z,100310.47
2022-12-01T19:46:11.173Z,100302.97
2022-12-01T19:48:37.811Z,100311.47
2022-12-01T19:51:04.960Z,100304.94
2022-12-01T19:53:33.769Z,100303.41
2022-12-01T19:56:03.777Z,100301.41
2022-12-01T19:58:32.966Z,100297.88
2022-12-01T20:01:02.848Z,100299.03
2022-12-01T20:03:29.379Z,100304.94
2022-12-01T20:06:01.086Z,100303.97
2022-12-01T20:08:27.576Z,100305.25
2022-12-01T20:10:54.089Z,100304.66
2022-12-01T20:13:21.938Z,100297.25
2022-12-01T20:15:48.516Z,100305.16
2022-12-01T20:18:15.000Z,100303.72
2022-12-01T20:20:41.537Z,100301.88
2022-12-01T20:23:08.044Z,100313.31
2022-12-01T20:25:34.540Z,100300.03
2022-12-01T20:28:01.773Z,100301.41
2022-12-01T20:30:29.657Z,100300.56
2022-12-01T20:32:56.195Z,100296.66
2022-12-01T20:35:22.775Z,100301.47
2022-12-01T20:37:49.246Z,100302.03
2022-12-01T20:40:15.782Z,100297.81
2022-12-01T20:42:43.396Z,100298.66
2022-12-01T20:45:09.932Z,100293.41
2022-12-01T20:47:37.797Z,100300.63
2022-12-01T20:50:05.284Z,100295.25
2022-12-01T20:52:31.763Z,100289.88
2022-12-01T20:54:58.272Z,100286.81
2022-12-01T20:57:24.794Z,100290.44
2022-12-01T20:59:51.323Z,100284.50
2022-12-01T21:02:17.985Z,100285.22
2022-12-01T21:04:45.928Z,100281.13
2022-12-01T21:07:12.425Z,100281.28
2022-12-01T21:09:38.919Z,100278.16
2022-12-01T21:12:12.565Z,100274.91
2022-12-01T21:14:45.264Z,100280.44
2022-12-01T21:17:23.649Z,100276.06
2022-12-01T21:19:57.417Z,100285.13
2022-12-01T21:22:25.016Z,100279.03
2022-12-01T21:24:52.056Z,100279.13
2022-12-01T21:28:16.376Z,100285.88
2022-12-01T21:30:43.046Z,100280.50
2022-12-01T21:33:20.521Z,100285.56
2022-12-01T21:35:50.037Z,100286.97
2022-12-01T21:38:21.750Z,100285.28
2022-12-01T21:40:49.523Z,100283.66
2022-12-01T21:43:20.156Z,100280.53
2022-12-01T21:45:51.838Z,100278.63
2022-12-01T21:48:20.958Z,100275.59
2022-12-01T21:50:53.788Z,100276.56
2022-12-01T21:53:22.053Z,100275.25
2022-12-01T21:55:49.254Z,100274.00
2022-12-01T21:58:23.620Z,100272.94
2022-12-01T22:00:51.766Z,100276.94
2022-12-01T22:03:29.941Z,100281.72
2022-12-01T22:06:27.889Z,100273.56
2022-12-01T22:08:49.920Z,100275.59
2022-12-01T22:11:19.178Z,100263.09
2022-12-01T22:13:51.741Z,100270.81
2022-12-01T22:16:21.381Z,100270.81
2022-12-01T22:18:53.549Z,100271.88
2022-12-01T22:21:41.049Z,100272.19
2022-12-01T22:24:23.171Z,100262.75
2022-12-01T22:26:57.443Z,100260.50
2022-12-01T22:29:31.216Z,100260.34
2022-12-01T22:32:39.896Z,100256.53
2022-12-01T22:35:23.960Z,100256.38
2022-12-01T22:37:53.391Z,100258.72
2022-12-01T22:40:32.834Z,100265.50
2022-12-01T22:43:18.407Z,100261.13
2022-12-01T22:45:49.700Z,100261.41
2022-12-01T22:48:28.004Z,100262.13
2022-12-01T22:50:58.292Z,100252.88
2022-12-01T22:53:29.615Z,100257.44
2022-12-01T22:55:59.862Z,100260.34
2022-12-01T22:58:30.182Z,100253.72
2022-12-01T23:01:02.392Z,100247.50
2022-12-01T23:03:29.467Z,100241.28
2022-12-01T23:05:57.589Z,100240.28
2022-12-01T23:08:24.704Z,100237.59
2022-12-01T23:10:52.064Z,100236.19
2022-12-01T23:13:21.554Z,100242.63
2022-12-01T23:15:51.271Z,100235.63
2022-12-01T23:18:22.710Z,100240.34
2022-12-01T23:20:51.534Z,100233.88
2022-12-01T23:23:19.961Z,100217.75
2022-12-01T23:25:49.187Z,100229.50
2022-12-01T23:28:16.614Z,100225.13
2022-12-01T23:30:45.984Z,100214.38
2022-12-01T23:33:20.453Z,100211.00
2022-12-01T23:35:51.755Z,100214.66
2022-12-01T23:38:21.165Z,100211.69
2022-12-01T23:40:50.154Z,100214.53
2022-12-01T23:43:20.376Z,100210.69
2022-12-01T23:45:49.393Z,100221.13
2022-12-01T23:48:21.915Z,100215.72
2022-12-01T23:50:52.620Z,100208.38
2022-12-01T23:53:24.834Z,100206.69
2022-12-01T23:55:51.923Z,100201.59
2022-12-01T23:58:19.217Z,100210.16
